sensor_id;sensor_type;location;lat;lon;timestamp;pressure;altitude;pressure_sealevel;temperature;humidity
38558;BME280;24333;42.626;23.308;2023-03-18T00:20:09;92512.59;;;-0.88;100.00
38558;BME280;24333;42.626;23.308;2023-03-18T00:22:38;92511.81;;;-0.88;100.00
38558;BME280;24333;42.626;23.308;2023-03-18T00:25:05;92517.88;;;-0.82;100.00
38558;BME280;24333;42.626;23.308;2023-03-18T00:27:32;92517.88;;;-0.82;100.00
38558;BME280;24333;42.626;23.308;2023-03-18T00:29:58;92525.59;;;-0.81;100.00
38558;BME280;24333;42.626;23.308;2023-03-18T00:32:27;92522.91;;;-0.81;100.00
38558;BME280;24333;42.626;23.308;2023-03-18T00:35:15;92518.84;;;-0.78;100.00
38558;BME280;24333;42.626;23.308;2023-03-18T00:37:41;92501.91;;;-0.88;100.00
38558;BME280;24333;42.626;23.308;2023-03-18T00:40:09;92507.44;;;-0.84;100.00
38558;BME280;24333;42.626;23.308;2023-03-18T00:42:41;92504.66;;;-0.93;100.00
38558;BME280;24333;42.626;23.308;2023-03-18T00:45:13;92491.84;;;-0.96;100.00
38558;BME280;24333;42.626;23.308;2023-03-18T00:47:41;92489.38;;;-1.06;100.00
38558;BME280;24333;42.626;23.308;2023-03-18T00:50:32;92490.56;;;-0.98;100.00
38558;BME280;24333;42.626;23.308;2023-03-18T04:35:30;92454.19;;;-2.13;100.00
38558;BME280;24333;42.626;23.308;2023-03-18T04:38:53;92493.97;;;-1.92;100.00
38558;BME280;24333;42.626;23.308;2023-03-18T04:42:31;92476.50;;;-2.04;100.00
38558;BME280;24333;42.626;23.308;2023-03-18T13:00:44;92498.72;;;6.99;48.05
38558;BME280;24333;42.626;23.308;2023-03-18T13:06:02;92516.59;;;7.44;48.75
38558;BME280;24333;42.626;23.308;2023-03-18T13:08:53;92520.28;;;7.23;48.50
38558;BME280;24333;42.626;23.308;2023-03-18T13:20:37;92488.69;;;6.58;49.17
38558;BME280;24333;42.626;23.308;2023-03-18T13:32:24;92518.44;;;8.36;44.89
38558;BME280;24333;42.626;23.308;2023-03-18T13:35:16;92526.41;;;8.13;44.82
38558;BME280;24333;42.626;23.308;2023-03-18T13:38:24;92498.19;;;7.53;44.97
38558;BME280;24333;42.626;23.308;2023-03-18T13:43:51;92518.47;;;8.04;44.38
38558;BME280;24333;42.626;23.308;2023-03-18T13:46:24;92517.31;;;9.13;43.22
38558;BME280;24333;42.626;23.308;2023-03-18T13:48:59;92507.88;;;9.26;40.15
38558;BME280;24333;42.626;23.308;2023-03-18T14:00:41;92508.53;;;9.39;41.73
38558;BME280;24333;42.626;23.308;2023-03-18T14:03:27;92492.50;;;8.94;41.65
38558;BME280;24333;42.626;23.308;2023-03-18T14:14:01;92500.94;;;9.09;42.67
38558;BME280;24333;42.626;23.308;2023-03-18T14:16:50;92490.88;;;9.52;40.32
38558;BME280;24333;42.626;23.308;2023-03-18T14:19:28;92491.38;;;10.05;39.67
38558;BME280;24333;42.626;23.308;2023-03-18T15:21:20;92492.69;;;7.05;44.04
38558;BME280;24333;42.626;23.308;2023-03-18T15:27:34;92521.13;;;6.83;45.29
38558;BME280;24333;42.626;23.308;2023-03-18T15:30:05;92513.16;;;6.62;43.25
38558;BME280;24333;42.626;23.308;2023-03-18T15:32:42;92519.00;;;6.23;44.80
38558;BME280;24333;42.626;23.308;2023-03-18T15:35:18;92543.56;;;6.18;44.61
38558;BME280;24333;42.626;23.308;2023-03-18T15:37:46;92522.78;;;5.72;45.15
38558;BME280;24333;42.626;23.308;2023-03-18T15:40:32;92551.19;;;5.78;46.19
38558;BME280;24333;42.626;23.308;2023-03-18T18:39:15;92707.22;;;1.72;85.05
38558;BME280;24333;42.626;23.308;2023-03-18T18:41:42;92697.19;;;1.64;84.64
38558;BME280;24333;42.626;23.308;2023-03-18T18:44:08;92698.31;;;1.63;86.50
38558;BME280;24333;42.626;23.308;2023-03-18T23:31:12;92672.50;;;-0.41;100.00
38558;BME280;24333;42.626;23.308;2023-03-18T23:33:38;92643.56;;;-0.58;100.00
38558;BME280;24333;42.626;23.308;2023-03-18T23:36:03;92668.22;;;-0.42;100.00
38558;BME280;24333;42.626;23.308;2023-03-18T23:38:29;92670.31;;;-0.39;100.00
38558;BME280;24333;42.626;23.308;2023-03-18T23:40:55;92659.19;;;-0.46;100.00
38558;BME280;24333;42.626;23.308;2023-03-18T23:49:48;92671.41;;;-0.40;100.00
38558;BME280;24333;42.626;23.308;2023-03-18T23:52:14;92676.38;;;-0.33;100.00
